sensor_id;sensor_type;location;lat;lon;timestamp;P1;durP1;ratioP1;P2;durP2;ratioP2
18796;SDS011;9526;52.612;13.300;2023-04-07T00:01:21;35.63;;;19.83;;
18796;SDS011;9526;52.612;13.300;2023-04-07T00:03:44;34.13;;;19.33;;
18796;SDS011;9526;52.612;13.300;2023-04-07T00:06:08;33.13;;;19.03;;
18796;SDS011;9526;52.612;13.300;2023-04-07T00:08:33;34.57;;;18.93;;
18796;SDS011;9526;52.612;13.300;2023-04-07T00:10:57;32.57;;;19.83;;
18796;SDS011;9526;52.612;13.300;2023-04-07T00:13:21;33.87;;;18.20;;
18796;SDS011;9526;52.612;13.300;2023-04-07T00:15:45;29.37;;;18.27;;
18796;SDS011;9526;52.612;13.300;2023-04-07T00:18:08;34.47;;;18.10;;
18796;SDS011;9526;52.612;13.300;2023-04-07T00:20:32;30.33;;;18.07;;
18796;SDS011;9526;52.612;13.300;2023-04-07T00:22:56;35.40;;;19.03;;
18796;SDS011;9526;52.612;13.300;2023-04-07T00:25:21;30.63;;;18.53;;
18796;SDS011;9526;52.612;13.300;2023-04-07T00:27:44;29.13;;;18.37;;
18796;SDS011;9526;52.612;13.300;2023-04-07T00:30:08;32.53;;;18.77;;
18796;SDS011;9526;52.612;13.300;2023-04-07T00:32:33;32.03;;;19.77;;
18796;SDS011;9526;52.612;13.300;2023-04-07T00:34:57;34.07;;;19.13;;
18796;SDS011;9526;52.612;13.300;2023-04-07T00:37:22;34.57;;;19.60;;
18796;SDS011;9526;52.612;13.300;2023-04-07T00:39:47;31.03;;;18.83;;
18796;SDS011;9526;52.612;13.300;2023-04-07T00:42:13;33.30;;;20.13;;
18796;SDS011;9526;52.612;13.300;2023-04-07T00:44:37;34.40;;;19.33;;
18796;SDS011;9526;52.612;13.300;2023-04-07T00:47:01;31.93;;;18.37;;
18796;SDS011;9526;52.612;13.300;2023-04-07T00:49:25;33.77;;;19.40;;
18796;SDS011;9526;52.612;13.300;2023-04-07T00:51:49;33.00;;;18.50;;
18796;SDS011;9526;52.612;13.300;2023-04-07T00:54:14;31.60;;;18.17;;
18796;SDS011;9526;52.612;13.300;2023-04-07T00:56:37;34.07;;;19.00;;
18796;SDS011;9526;52.612;13.300;2023-04-07T00:59:05;30.37;;;18.67;;
18796;SDS011;9526;52.612;13.300;2023-04-07T01:01:30;33.87;;;20.47;;
18796;SDS011;9526;52.612;13.300;2023-04-07T01:04:02;33.20;;;19.43;;
18796;SDS011;9526;52.612;13.300;2023-04-07T01:06:32;33.23;;;18.73;;
18796;SDS011;9526;52.612;13.300;2023-04-07T01:09:03;31.03;;;19.13;;
18796;SDS011;9526;52.612;13.300;2023-04-07T01:11:31;31.00;;;18.53;;
18796;SDS011;9526;52.612;13.300;2023-04-07T01:14:03;30.80;;;18.03;;
18796;SDS011;9526;52.612;13.300;2023-04-07T01:16:38;32.33;;;18.60;;
18796;SDS011;9526;52.612;13.300;2023-04-07T01:19:07;28.80;;;17.50;;
18796;SDS011;9526;52.612;13.300;2023-04-07T01:21:46;29.80;;;17.13;;
18796;SDS011;9526;52.612;13.300;2023-04-07T01:24:25;30.33;;;17.83;;
18796;SDS011;9526;52.612;13.300;2023-04-07T01:27:04;29.90;;;18.17;;
18796;SDS011;9526;52.612;13.300;2023-04-07T01:29:44;33.83;;;18.77;;
18796;SDS011;9526;52.612;13.300;2023-04-07T01:32:10;33.03;;;18.30;;
18796;SDS011;9526;52.612;13.300;2023-04-07T01:34:35;32.83;;;19.97;;
18796;SDS011;9526;52.612;13.300;2023-04-07T01:37:00;36.00;;;18.43;;
18796;SDS011;9526;52.612;13.300;2023-04-07T01:39:25;35.90;;;20.80;;
18796;SDS011;9526;52.612;13.300;2023-04-07T01:41:49;33.67;;;19.30;;
18796;SDS011;9526;52.612;13.300;2023-04-07T01:44:15;37.23;;;19.67;;
18796;SDS011;9526;52.612;13.300;2023-04-07T01:46:40;33.93;;;19.97;;
18796;SDS011;9526;52.612;13.300;2023-04-07T01:49:04;33.47;;;19.37;;
18796;SDS011;9526;52.612;13.300;2023-04-07T01:51:29;34.60;;;19.10;;
18796;SDS011;9526;52.612;13.300;2023-04-07T01:53:53;32.83;;;18.77;;
18796;SDS011;9526;52.612;13.300;2023-04-07T01:56:18;36.27;;;20.80;;
18796;SDS011;9526;52.612;13.300;2023-04-07T01:58:45;35.30;;;19.17;;
18796;SDS011;9526;52.612;13.300;2023-04-07T02:01:12;34.07;;;18.70;;
18796;SDS011;9526;52.612;13.300;2023-04-07T02:03:41;33.03;;;18.33;;
18796;SDS011;9526;52.612;13.300;2023-04-07T02:06:23;31.37;;;18.30;;
18796;SDS011;9526;52.612;13.300;2023-04-07T02:08:56;32.60;;;17.90;;
18796;SDS011;9526;52.612;13.300;2023-04-07T02:11:25;33.10;;;18.00;;
18796;SDS011;9526;52.612;13.300;2023-04-07T02:13:53;30.50;;;17.60;;
18796;SDS011;9526;52.612;13.300;2023-04-07T02:16:20;29.60;;;17.00;;
18796;SDS011;9526;52.612;13.300;2023-04-07T02:18:46;29.03;;;17.20;;
18796;SDS011;9526;52.612;13.300;2023-04-07T02:21:11;26.90;;;15.73;;
18796;SDS011;9526;52.612;13.300;2023-04-07T02:23:38;27.83;;;16.70;;
18796;SDS011;9526;52.612;13.300;2023-04-07T02:26:02;30.80;;;17.97;;
18796;SDS011;9526;52.612;13.300;2023-04-07T02:28:27;28.07;;;17.60;;
18796;SDS011;9526;52.612;13.300;2023-04-07T02:30:51;32.33;;;17.37;;
18796;SDS011;9526;52.612;13.300;2023-04-07T02:33:14;32.10;;;16.67;;
18796;SDS011;9526;52.612;13.300;2023-04-07T02:35:39;29.43;;;16.57;;
18796;SDS011;9526;52.612;13.300;2023-04-07T02:38:03;29.30;;;17.10;;
18796;SDS011;9526;52.612;13.300;2023-04-07T02:40:29;29.43;;;17.00;;
18796;SDS011;9526;52.612;13.300;2023-04-07T02:42:53;27.97;;;16.60;;
18796;SDS011;9526;52.612;13.300;2023-04-07T02:45:16;29.40;;;16.10;;
18796;SDS011;9526;52.612;13.300;2023-04-07T02:47:40;30.07;;;15.97;;
18796;SDS011;9526;52.612;13.300;2023-04-07T02:50:04;28.70;;;16.77;;
18796;SDS011;9526;52.612;13.300;2023-04-07T02:52:31;29.03;;;16.10;;
18796;SDS011;9526;52.612;13.300;2023-04-07T02:54:57;28.17;;;15.97;;
18796;SDS011;9526;52.612;13.300;2023-04-07T02:57:22;28.90;;;16.40;;
18796;SDS011;9526;52.612;13.300;2023-04-07T02:59:49;27.97;;;16.33;;
18796;SDS011;9526;52.612;13.300;2023-04-07T03:02:12;31.40;;;16.97;;
18796;SDS011;9526;52.612;13.300;2023-04-07T03:04:36;31.60;;;17.37;;
18796;SDS011;9526;52.612;13.300;2023-04-07T03:07:00;30.27;;;16.70;;
18796;SDS011;9526;52.612;13.300;2023-04-07T03:09:27;31.63;;;16.67;;
18796;SDS011;9526;52.612;13.300;2023-04-07T03:11:51;29.23;;;17.10;;
18796;SDS011;9526;52.612;13.300;2023-04-07T03:14:14;29.30;;;16.60;;
18796;SDS011;9526;52.612;13.300;2023-04-07T03:16:41;26.83;;;16.17;;
18796;SDS011;9526;52.612;13.300;2023-04-07T03:19:07;29.33;;;17.20;;
18796;SDS011;9526;52.612;13.300;2023-04-07T03:21:36;30.07;;;15.83;;
18796;SDS011;9526;52.612;13.300;2023-04-07T03:24:00;29.47;;;16.17;;
18796;SDS011;9526;52.612;13.300;2023-04-07T03:26:25;26.60;;;16.00;;
18796;SDS011;9526;52.612;13.300;2023-04-07T03:28:50;27.40;;;15.67;;
18796;SDS011;9526;52.612;13.300;2023-04-07T03:31:14;25.43;;;15.63;;
18796;SDS011;9526;52.612;13.300;2023-04-07T03:33:39;25.10;;;15.40;;
18796;SDS011;9526;52.612;13.300;2023-04-07T03:36:02;25.90;;;14.50;;
18796;SDS011;9526;52.612;13.300;2023-04-07T03:38:27;25.53;;;15.10;;
18796;SDS011;9526;52.612;13.300;2023-04-07T03:40:54;25.03;;;15.07;;
18796;SDS011;9526;52.612;13.300;2023-04-07T03:43:19;26.43;;;14.50;;
18796;SDS011;9526;52.612;13.300;2023-04-07T03:45:43;25.67;;;14.47;;
18796;SDS011;9526;52.612;13.300;2023-04-07T03:48:08;25.70;;;14.63;;
18796;SDS011;9526;52.612;13.300;2023-04-07T03:50:42;23.30;;;14.03;;
18796;SDS011;9526;52.612;13.300;2023-04-07T03:53:08;23.47;;;13.83;;
18796;SDS011;9526;52.612;13.300;2023-04-07T03:55:34;24.53;;;14.37;;
18796;SDS011;9526;52.612;13.300;2023-04-07T03:58:06;24.70;;;14.00;;
18796;SDS011;9526;52.612;13.300;2023-04-07T04:00:32;26.37;;;14.13;;
18796;SDS011;9526;52.612;13.300;2023-04-07T04:03:01;25.53;;;14.97;;
18796;SDS011;9526;52.612;13.300;2023-04-07T04:05:26;26.17;;;14.17;;
18796;SDS011;9526;52.612;13.300;2023-04-07T04:07:50;23.77;;;13.53;;
18796;SDS011;9526;52.612;13.300;2023-04-07T04:10:16;25.67;;;14.10;;
18796;SDS011;9526;52.612;13.300;2023-04-07T04:12:42;25.70;;;14.17;;
18796;SDS011;9526;52.612;13.300;2023-04-07T04:15:08;23.07;;;13.43;;
18796;SDS011;9526;52.612;13.300;2023-04-07T04:17:34;22.83;;;12.80;;
18796;SDS011;9526;52.612;13.300;2023-04-07T04:19:59;24.20;;;14.03;;
18796;SDS011;9526;52.612;13.300;2023-04-07T04:22:34;22.33;;;13.07;;
18796;SDS011;9526;52.612;13.300;2023-04-07T04:24:58;24.90;;;13.70;;
18796;SDS011;9526;52.612;13.300;2023-04-07T04:27:22;23.97;;;13.40;;
18796;SDS011;9526;52.612;13.300;2023-04-07T04:29:52;24.07;;;13.07;;
18796;SDS011;9526;52.612;13.300;2023-04-07T04:32:27;24.60;;;13.10;;
18796;SDS011;9526;52.612;13.300;2023-04-07T04:34:53;23.10;;;12.77;;
18796;SDS011;9526;52.612;13.300;2023-04-07T04:37:18;26.33;;;13.13;;
18796;SDS011;9526;52.612;13.300;2023-04-07T04:39:42;23.43;;;13.70;;
18796;SDS011;9526;52.612;13.300;2023-04-07T04:42:07;24.40;;;13.60;;
18796;SDS011;9526;52.612;13.300;2023-04-07T04:44:31;22.03;;;13.60;;
18796;SDS011;9526;52.612;13.300;2023-04-07T04:46:56;25.43;;;13.77;;
18796;SDS011;9526;52.612;13.300;2023-04-07T04:49:20;23.87;;;13.97;;
18796;SDS011;9526;52.612;13.300;2023-04-07T04:51:47;25.87;;;14.60;;
18796;SDS011;9526;52.612;13.300;2023-04-07T04:54:10;23.27;;;14.53;;
18796;SDS011;9526;52.612;13.300;2023-04-07T04:56:34;30.83;;;15.03;;
18796;SDS011;9526;52.612;13.300;2023-04-07T04:58:59;27.97;;;16.07;;
18796;SDS011;9526;52.612;13.300;2023-04-07T05:01:45;29.87;;;16.40;;
18796;SDS011;9526;52.612;13.300;2023-04-07T05:04:10;27.20;;;16.57;;
18796;SDS011;9526;52.612;13.300;2023-04-07T05:06:40;34.63;;;16.90;;
18796;SDS011;9526;52.612;13.300;2023-04-07T05:09:08;32.20;;;16.93;;
18796;SDS011;9526;52.612;13.300;2023-04-07T05:11:39;32.33;;;18.00;;
18796;SDS011;9526;52.612;13.300;2023-04-07T05:14:03;28.63;;;16.70;;
18796;SDS011;9526;52.612;13.300;2023-04-07T05:16:27;30.90;;;17.13;;
18796;SDS011;9526;52.612;13.300;2023-04-07T05:18:51;29.00;;;17.23;;
18796;SDS011;9526;52.612;13.300;2023-04-07T05:21:15;31.23;;;16.83;;
18796;SDS011;9526;52.612;13.300;2023-04-07T05:23:41;28.80;;;16.90;;
18796;SDS011;9526;52.612;13.300;2023-04-07T05:26:06;31.27;;;17.27;;
18796;SDS011;9526;52.612;13.300;2023-04-07T05:28:30;30.60;;;16.93;;
18796;SDS011;9526;52.612;13.300;2023-04-07T05:30:58;31.67;;;16.87;;
18796;SDS011;9526;52.612;13.300;2023-04-07T05:33:25;30.67;;;18.30;;
18796;SDS011;9526;52.612;13.300;2023-04-07T05:35:49;30.47;;;17.30;;
18796;SDS011;9526;52.612;13.300;2023-04-07T05:38:13;30.23;;;17.10;;
18796;SDS011;9526;52.612;13.300;2023-04-07T05:40:38;30.13;;;16.87;;
18796;SDS011;9526;52.612;13.300;2023-04-07T05:43:07;28.80;;;15.77;;
18796;SDS011;9526;52.612;13.300;2023-04-07T05:45:31;31.80;;;16.97;;
18796;SDS011;9526;52.612;13.300;2023-04-07T05:47:55;25.53;;;16.60;;
18796;SDS011;9526;52.612;13.300;2023-04-07T05:50:25;33.20;;;16.27;;
18796;SDS011;9526;52.612;13.300;2023-04-07T05:52:52;29.67;;;16.20;;
18796;SDS011;9526;52.612;13.300;2023-04-07T05:55:19;29.50;;;16.20;;
18796;SDS011;9526;52.612;13.300;2023-04-07T05:57:44;29.13;;;15.17;;
18796;SDS011;9526;52.612;13.300;2023-04-07T06:00:11;26.60;;;15.10;;
18796;SDS011;9526;52.612;13.300;2023-04-07T06:02:41;29.30;;;16.17;;
18796;SDS011;9526;52.612;13.300;2023-04-07T06:05:10;23.83;;;13.70;;
18796;SDS011;9526;52.612;13.300;2023-04-07T06:07:34;26.40;;;14.27;;
18796;SDS011;9526;52.612;13.300;2023-04-07T06:09:58;20.10;;;12.90;;
18796;SDS011;9526;52.612;13.300;2023-04-07T06:12:22;21.83;;;13.27;;
18796;SDS011;9526;52.612;13.300;2023-04-07T06:14:46;23.33;;;13.70;;
18796;SDS011;9526;52.612;13.300;2023-04-07T06:17:17;22.43;;;12.43;;
18796;SDS011;9526;52.612;13.300;2023-04-07T06:19:41;20.87;;;12.87;;
18796;SDS011;9526;52.612;13.300;2023-04-07T06:22:05;22.00;;;13.10;;
18796;SDS011;9526;52.612;13.300;2023-04-07T06:24:28;28.40;;;12.93;;
18796;SDS011;9526;52.612;13.300;2023-04-07T06:26:54;21.67;;;12.67;;
18796;SDS011;9526;52.612;13.300;2023-04-07T06:29:19;22.23;;;13.50;;
18796;SDS011;9526;52.612;13.300;2023-04-07T06:31:43;20.97;;;12.27;;
18796;SDS011;9526;52.612;13.300;2023-04-07T06:34:08;20.57;;;11.87;;
18796;SDS011;9526;52.612;13.300;2023-04-07T06:36:32;23.93;;;12.50;;
18796;SDS011;9526;52.612;13.300;2023-04-07T06:38:56;21.30;;;12.40;;
18796;SDS011;9526;52.612;13.300;2023-04-07T06:41:20;20.67;;;11.67;;
18796;SDS011;9526;52.612;13.300;2023-04-07T06:43:46;24.63;;;11.93;;
18796;SDS011;9526;52.612;13.300;2023-04-07T06:46:11;24.17;;;12.17;;
18796;SDS011;9526;52.612;13.300;2023-04-07T06:48:35;17.87;;;11.40;;
18796;SDS011;9526;52.612;13.300;2023-04-07T06:51:00;20.23;;;11.37;;
18796;SDS011;9526;52.612;13.300;2023-04-07T06:53:24;19.90;;;11.20;;
18796;SDS011;9526;52.612;13.300;2023-04-07T06:55:48;17.50;;;10.73;;
18796;SDS011;9526;52.612;13.300;2023-04-07T06:58:11;21.00;;;11.47;;
18796;SDS011;9526;52.612;13.300;2023-04-07T07:00:35;19.53;;;10.17;;
18796;SDS011;9526;52.612;13.300;2023-04-07T07:02:58;17.63;;;10.30;;
18796;SDS011;9526;52.612;13.300;2023-04-07T07:05:23;17.40;;;11.17;;
18796;SDS011;9526;52.612;13.300;2023-04-07T07:07:49;19.33;;;10.30;;
18796;SDS011;9526;52.612;13.300;2023-04-07T07:10:13;22.47;;;11.40;;
18796;SDS011;9526;52.612;13.300;2023-04-07T07:12:36;21.20;;;10.67;;
18796;SDS011;9526;52.612;13.300;2023-04-07T07:15:00;17.87;;;10.47;;
18796;SDS011;9526;52.612;13.300;2023-04-07T07:17:24;18.87;;;11.00;;
18796;SDS011;9526;52.612;13.300;2023-04-07T07:19:48;18.63;;;10.37;;
18796;SDS011;9526;52.612;13.300;2023-04-07T07:22:11;18.20;;;10.27;;
18796;SDS011;9526;52.612;13.300;2023-04-07T07:24:37;18.60;;;9.77;;
18796;SDS011;9526;52.612;13.300;2023-04-07T07:27:00;20.33;;;10.37;;
18796;SDS011;9526;52.612;13.300;2023-04-07T07:29:24;15.40;;;9.87;;
18796;SDS011;9526;52.612;13.300;2023-04-07T07:31:48;16.97;;;9.97;;
18796;SDS011;9526;52.612;13.300;2023-04-07T07:34:11;20.10;;;10.20;;
18796;SDS011;9526;52.612;13.300;2023-04-07T07:36:35;17.03;;;9.67;;
18796;SDS011;9526;52.612;13.300;2023-04-07T07:38:59;16.73;;;10.00;;
18796;SDS011;9526;52.612;13.300;2023-04-07T07:41:24;15.80;;;8.97;;
18796;SDS011;9526;52.612;13.300;2023-04-07T07:43:48;16.53;;;9.00;;
18796;SDS011;9526;52.612;13.300;2023-04-07T07:46:12;14.97;;;8.50;;
18796;SDS011;9526;52.612;13.300;2023-04-07T07:48:36;15.30;;;8.90;;
18796;SDS011;9526;52.612;13.300;2023-04-07T07:50:59;15.87;;;8.70;;
18796;SDS011;9526;52.612;13.300;2023-04-07T07:53:23;12.02;;;7.43;;
18796;SDS011;9526;52.612;13.300;2023-04-07T07:55:47;15.13;;;8.33;;
18796;SDS011;9526;52.612;13.300;2023-04-07T07:58:12;15.80;;;8.25;;
18796;SDS011;9526;52.612;13.300;2023-04-07T08:00:36;13.55;;;7.60;;
18796;SDS011;9526;52.612;13.300;2023-04-07T08:03:00;15.57;;;8.00;;
18796;SDS011;9526;52.612;13.300;2023-04-07T08:05:23;12.15;;;7.70;;
18796;SDS011;9526;52.612;13.300;2023-04-07T08:07:47;12.43;;;7.40;;
18796;SDS011;9526;52.612;13.300;2023-04-07T08:10:14;11.77;;;7.18;;
18796;SDS011;9526;52.612;13.300;2023-04-07T08:12:38;11.37;;;6.60;;
18796;SDS011;9526;52.612;13.300;2023-04-07T08:15:03;10.98;;;6.18;;
18796;SDS011;9526;52.612;13.300;2023-04-07T08:17:30;12.70;;;6.20;;
18796;SDS011;9526;52.612;13.300;2023-04-07T08:19:54;11.02;;;6.53;;
18796;SDS011;9526;52.612;13.300;2023-04-07T08:22:17;10.32;;;6.72;;
18796;SDS011;9526;52.612;13.300;2023-04-07T08:24:41;12.52;;;6.85;;
18796;SDS011;9526;52.612;13.300;2023-04-07T08:27:05;9.00;;;5.47;;
18796;SDS011;9526;52.612;13.300;2023-04-07T08:29:28;11.90;;;6.53;;
18796;SDS011;9526;52.612;13.300;2023-04-07T08:31:54;15.70;;;6.82;;
18796;SDS011;9526;52.612;13.300;2023-04-07T08:34:18;9.20;;;6.43;;
18796;SDS011;9526;52.612;13.300;2023-04-07T08:36:41;11.90;;;6.72;;
18796;SDS011;9526;52.612;13.300;2023-04-07T08:39:05;10.55;;;6.00;;
18796;SDS011;9526;52.612;13.300;2023-04-07T08:41:29;12.88;;;6.78;;
18796;SDS011;9526;52.612;13.300;2023-04-07T08:44:00;15.13;;;7.72;;
18796;SDS011;9526;52.612;13.300;2023-04-07T08:46:24;12.13;;;6.35;;
18796;SDS011;9526;52.612;13.300;2023-04-07T08:48:50;10.80;;;6.15;;
18796;SDS011;9526;52.612;13.300;2023-04-07T08:51:14;12.40;;;5.93;;
18796;SDS011;9526;52.612;13.300;2023-04-07T08:53:46;11.23;;;6.18;;
18796;SDS011;9526;52.612;13.300;2023-04-07T08:56:11;10.70;;;6.68;;
18796;SDS011;9526;52.612;13.300;2023-04-07T08:58:36;12.95;;;6.18;;
18796;SDS011;9526;52.612;13.300;2023-04-07T09:01:00;12.95;;;6.35;;
18796;SDS011;9526;52.612;13.300;2023-04-07T09:03:26;10.40;;;5.32;;
18796;SDS011;9526;52.612;13.300;2023-04-07T09:05:54;9.85;;;5.32;;
18796;SDS011;9526;52.612;13.300;2023-04-07T09:08:19;12.98;;;5.93;;
18796;SDS011;9526;52.612;13.300;2023-04-07T09:10:42;10.60;;;5.88;;
18796;SDS011;9526;52.612;13.300;2023-04-07T09:13:06;11.27;;;5.78;;
18796;SDS011;9526;52.612;13.300;2023-04-07T09:15:30;8.13;;;5.43;;
18796;SDS011;9526;52.612;13.300;2023-04-07T09:17:55;9.95;;;5.82;;
18796;SDS011;9526;52.612;13.300;2023-04-07T09:20:19;10.48;;;5.65;;
18796;SDS011;9526;52.612;13.300;2023-04-07T09:22:44;11.15;;;5.65;;
18796;SDS011;9526;52.612;13.300;2023-04-07T09:25:09;9.95;;;5.18;;
18796;SDS011;9526;52.612;13.300;2023-04-07T09:27:35;8.23;;;5.43;;
18796;SDS011;9526;52.612;13.300;2023-04-07T09:30:09;7.80;;;4.78;;
18796;SDS011;9526;52.612;13.300;2023-04-07T09:32:35;8.57;;;4.95;;
18796;SDS011;9526;52.612;13.300;2023-04-07T09:35:00;8.20;;;5.45;;
18796;SDS011;9526;52.612;13.300;2023-04-07T09:37:24;8.32;;;4.43;;
18796;SDS011;9526;52.612;13.300;2023-04-07T09:39:50;11.57;;;5.13;;
18796;SDS011;9526;52.612;13.300;2023-04-07T09:42:15;8.15;;;4.72;;
18796;SDS011;9526;52.612;13.300;2023-04-07T09:44:39;11.10;;;5.45;;
18796;SDS011;9526;52.612;13.300;2023-04-07T09:47:02;8.65;;;4.80;;
18796;SDS011;9526;52.612;13.300;2023-04-07T09:49:26;8.25;;;5.10;;
18796;SDS011;9526;52.612;13.300;2023-04-07T09:51:54;11.32;;;5.97;;
18796;SDS011;9526;52.612;13.300;2023-04-07T09:54:30;12.75;;;5.68;;
18796;SDS011;9526;52.612;13.300;2023-04-07T09:56:58;9.70;;;5.22;;
18796;SDS011;9526;52.612;13.300;2023-04-07T09:59:23;12.52;;;6.18;;
18796;SDS011;9526;52.612;13.300;2023-04-07T10:01:48;7.97;;;4.75;;
18796;SDS011;9526;52.612;13.300;2023-04-07T10:04:15;11.00;;;5.00;;
18796;SDS011;9526;52.612;13.300;2023-04-07T10:06:40;10.60;;;4.72;;
18796;SDS011;9526;52.612;13.300;2023-04-07T10:09:04;8.15;;;4.60;;
18796;SDS011;9526;52.612;13.300;2023-04-07T10:11:30;6.63;;;4.00;;
18796;SDS011;9526;52.612;13.300;2023-04-07T10:13:56;7.00;;;4.10;;
18796;SDS011;9526;52.612;13.300;2023-04-07T10:16:20;8.38;;;4.40;;
18796;SDS011;9526;52.612;13.300;2023-04-07T10:18:45;7.28;;;4.18;;
18796;SDS011;9526;52.612;13.300;2023-04-07T10:21:11;6.75;;;4.00;;
18796;SDS011;9526;52.612;13.300;2023-04-07T10:23:42;6.68;;;4.07;;
18796;SDS011;9526;52.612;13.300;2023-04-07T10:26:18;12.88;;;4.70;;
18796;SDS011;9526;52.612;13.300;2023-04-07T10:28:45;12.75;;;5.47;;
18796;SDS011;9526;52.612;13.300;2023-04-07T10:31:14;8.13;;;4.93;;
18796;SDS011;9526;52.612;13.300;2023-04-07T10:33:45;8.60;;;5.28;;
18796;SDS011;9526;52.612;13.300;2023-04-07T10:36:12;7.85;;;4.55;;
18796;SDS011;9526;52.612;13.300;2023-04-07T10:38:36;10.88;;;4.60;;
18796;SDS011;9526;52.612;13.300;2023-04-07T10:41:00;8.07;;;4.78;;
18796;SDS011;9526;52.612;13.300;2023-04-07T10:43:57;8.85;;;5.18;;
18796;SDS011;9526;52.612;13.300;2023-04-07T10:46:22;8.82;;;5.28;;
18796;SDS011;9526;52.612;13.300;2023-04-07T10:48:56;7.93;;;5.10;;
18796;SDS011;9526;52.612;13.300;2023-04-07T10:51:31;9.25;;;5.60;;
18796;SDS011;9526;52.612;13.300;2023-04-07T10:59:36;9.88;;;6.43;;
18796;SDS011;9526;52.612;13.300;2023-04-07T11:04:55;10.48;;;6.13;;
18796;SDS011;9526;52.612;13.300;2023-04-07T11:07:20;9.40;;;5.80;;
18796;SDS011;9526;52.612;13.300;2023-04-07T11:10:23;13.38;;;7.85;;
18796;SDS011;9526;52.612;13.300;2023-04-07T11:13:00;10.43;;;6.63;;
18796;SDS011;9526;52.612;13.300;2023-04-07T11:15:28;9.55;;;6.30;;
18796;SDS011;9526;52.612;13.300;2023-04-07T11:20:40;10.40;;;6.60;;
18796;SDS011;9526;52.612;13.300;2023-04-07T11:23:06;11.23;;;6.63;;
18796;SDS011;9526;52.612;13.300;2023-04-07T11:25:30;9.73;;;6.78;;
18796;SDS011;9526;52.612;13.300;2023-04-07T11:27:56;11.68;;;7.55;;
18796;SDS011;9526;52.612;13.300;2023-04-07T11:30:19;13.45;;;8.63;;
18796;SDS011;9526;52.612;13.300;2023-04-07T11:32:46;12.93;;;8.05;;
18796;SDS011;9526;52.612;13.300;2023-04-07T11:35:13;13.48;;;8.23;;
18796;SDS011;9526;52.612;13.300;2023-04-07T11:37:37;11.88;;;7.55;;
18796;SDS011;9526;52.612;13.300;2023-04-07T11:40:01;11.95;;;8.13;;
18796;SDS011;9526;52.612;13.300;2023-04-07T11:42:31;10.50;;;7.32;;
18796;SDS011;9526;52.612;13.300;2023-04-07T11:44:55;12.05;;;7.57;;
18796;SDS011;9526;52.612;13.300;2023-04-07T11:47:19;10.43;;;7.22;;
18796;SDS011;9526;52.612;13.300;2023-04-07T11:49:43;10.82;;;6.97;;
18796;SDS011;9526;52.612;13.300;2023-04-07T11:52:10;11.98;;;7.43;;
18796;SDS011;9526;52.612;13.300;2023-04-07T11:54:40;10.75;;;7.00;;
18796;SDS011;9526;52.612;13.300;2023-04-07T11:57:07;11.95;;;7.30;;
18796;SDS011;9526;52.612;13.300;2023-04-07T11:59:33;10.13;;;5.68;;
18796;SDS011;9526;52.612;13.300;2023-04-07T12:01:57;10.70;;;6.50;;
18796;SDS011;9526;52.612;13.300;2023-04-07T12:04:21;9.27;;;6.45;;
18796;SDS011;9526;52.612;13.300;2023-04-07T12:06:46;8.60;;;6.25;;
18796;SDS011;9526;52.612;13.300;2023-04-07T12:09:25;10.05;;;6.35;;
18796;SDS011;9526;52.612;13.300;2023-04-07T12:11:51;10.15;;;5.22;;
18796;SDS011;9526;52.612;13.300;2023-04-07T12:14:15;8.25;;;5.35;;
18796;SDS011;9526;52.612;13.300;2023-04-07T12:16:39;8.45;;;5.82;;
18796;SDS011;9526;52.612;13.300;2023-04-07T12:19:03;7.85;;;5.03;;
18796;SDS011;9526;52.612;13.300;2023-04-07T12:21:26;11.93;;;8.55;;
18796;SDS011;9526;52.612;13.300;2023-04-07T12:23:50;9.25;;;5.40;;
18796;SDS011;9526;52.612;13.300;2023-04-07T12:26:15;6.63;;;4.38;;
18796;SDS011;9526;52.612;13.300;2023-04-07T12:28:42;6.25;;;3.92;;
18796;SDS011;9526;52.612;13.300;2023-04-07T12:31:06;5.97;;;3.50;;
18796;SDS011;9526;52.612;13.300;2023-04-07T12:33:30;4.82;;;3.45;;
18796;SDS011;9526;52.612;13.300;2023-04-07T12:35:55;5.50;;;3.50;;
18796;SDS011;9526;52.612;13.300;2023-04-07T12:38:19;5.15;;;3.47;;
18796;SDS011;9526;52.612;13.300;2023-04-07T12:40:43;5.35;;;3.50;;
18796;SDS011;9526;52.612;13.300;2023-04-07T12:43:08;4.35;;;3.33;;
18796;SDS011;9526;52.612;13.300;2023-04-07T12:45:32;5.00;;;3.53;;
18796;SDS011;9526;52.612;13.300;2023-04-07T12:47:56;5.10;;;3.83;;
18796;SDS011;9526;52.612;13.300;2023-04-07T12:50:20;4.53;;;3.42;;
18796;SDS011;9526;52.612;13.300;2023-04-07T12:52:45;6.35;;;3.20;;
18796;SDS011;9526;52.612;13.300;2023-04-07T12:55:09;4.32;;;3.50;;
18796;SDS011;9526;52.612;13.300;2023-04-07T12:57:34;4.47;;;3.33;;
18796;SDS011;9526;52.612;13.300;2023-04-07T13:00:00;5.00;;;3.13;;
18796;SDS011;9526;52.612;13.300;2023-04-07T13:02:23;4.93;;;3.78;;
18796;SDS011;9526;52.612;13.300;2023-04-07T13:04:47;5.00;;;3.60;;
18796;SDS011;9526;52.612;13.300;2023-04-07T13:07:11;5.82;;;3.75;;
18796;SDS011;9526;52.612;13.300;2023-04-07T13:09:35;4.38;;;3.55;;
18796;SDS011;9526;52.612;13.300;2023-04-07T13:11:59;5.00;;;3.70;;
18796;SDS011;9526;52.612;13.300;2023-04-07T13:14:23;5.47;;;3.55;;
18796;SDS011;9526;52.612;13.300;2023-04-07T13:16:48;4.53;;;3.40;;
18796;SDS011;9526;52.612;13.300;2023-04-07T13:19:12;5.88;;;3.88;;
18796;SDS011;9526;52.612;13.300;2023-04-07T13:21:36;5.30;;;3.63;;
18796;SDS011;9526;52.612;13.300;2023-04-07T13:24:03;7.05;;;3.88;;
18796;SDS011;9526;52.612;13.300;2023-04-07T13:26:27;5.65;;;3.83;;
18796;SDS011;9526;52.612;13.300;2023-04-07T13:28:51;8.77;;;4.32;;
18796;SDS011;9526;52.612;13.300;2023-04-07T13:31:15;7.10;;;4.30;;
18796;SDS011;9526;52.612;13.300;2023-04-07T13:33:41;7.47;;;4.00;;
18796;SDS011;9526;52.612;13.300;2023-04-07T13:36:04;7.43;;;4.30;;
18796;SDS011;9526;52.612;13.300;2023-04-07T13:38:28;7.35;;;4.50;;
18796;SDS011;9526;52.612;13.300;2023-04-07T13:40:53;6.67;;;4.63;;
18796;SDS011;9526;52.612;13.300;2023-04-07T13:43:17;5.97;;;4.50;;
18796;SDS011;9526;52.612;13.300;2023-04-07T13:45:40;6.07;;;4.40;;
18796;SDS011;9526;52.612;13.300;2023-04-07T13:48:04;5.75;;;4.30;;
18796;SDS011;9526;52.612;13.300;2023-04-07T13:50:30;6.82;;;4.22;;
18796;SDS011;9526;52.612;13.300;2023-04-07T13:52:53;7.35;;;4.80;;
18796;SDS011;9526;52.612;13.300;2023-04-07T13:55:17;7.13;;;4.60;;
18796;SDS011;9526;52.612;13.300;2023-04-07T13:57:42;6.28;;;3.95;;
18796;SDS011;9526;52.612;13.300;2023-04-07T14:00:06;7.40;;;4.20;;
18796;SDS011;9526;52.612;13.300;2023-04-07T14:02:31;6.77;;;4.40;;
18796;SDS011;9526;52.612;13.300;2023-04-07T14:04:54;6.28;;;3.90;;
18796;SDS011;9526;52.612;13.300;2023-04-07T14:07:20;5.35;;;4.00;;
18796;SDS011;9526;52.612;13.300;2023-04-07T14:09:44;6.72;;;4.05;;
18796;SDS011;9526;52.612;13.300;2023-04-07T14:12:08;7.05;;;3.92;;
18796;SDS011;9526;52.612;13.300;2023-04-07T14:14:32;7.95;;;4.00;;
18796;SDS011;9526;52.612;13.300;2023-04-07T14:16:58;6.63;;;3.95;;
18796;SDS011;9526;52.612;13.300;2023-04-07T14:19:22;6.38;;;4.18;;
18796;SDS011;9526;52.612;13.300;2023-04-07T14:21:46;6.70;;;4.20;;
18796;SDS011;9526;52.612;13.300;2023-04-07T14:24:11;5.63;;;3.92;;
18796;SDS011;9526;52.612;13.300;2023-04-07T14:26:35;6.38;;;3.83;;
18796;SDS011;9526;52.612;13.300;2023-04-07T14:28:58;5.90;;;4.03;;
18796;SDS011;9526;52.612;13.300;2023-04-07T14:31:22;6.38;;;4.63;;
18796;SDS011;9526;52.612;13.300;2023-04-07T14:33:46;8.40;;;5.07;;